< < Back
Terminal Aerodrome Forecast


Current Version              Previous Versions:   1  2  3  4  5  6  7  8  9  

Terminal Aerodrome Forecast

736
FTUS42 KJAX 291125
TAFSSI
TAF
KSSI 291125Z 2912/3012 06009KT P6SM VCSH SCT020
     FM291500 08012G18KT P6SM VCSH SCT020 BKN035
     FM300400 08006KT P6SM SCT020 SCT250=

Latest METAR

799
SAUS70 KWBC 300300 RRJ
MTRSSI
METAR KSSI 300253Z AUTO 07010KT 10SM FEW021 FEW026 28/23 A3002 RMK AO2
SLP167 T02830233 50007


USA.gov is the U.S. government's official web portal to all federal, state and local government web resources and services.